Map

Track Data

SID SEASON NUMBER BASIN SUBBASIN NAME ISO_TIME NATURE LAT LON WMO_WIND WMO_PRES WMO_AGENCY TRACK_TYPE DIST2LAND LANDFALL IFLAG USA_AGENCY USA_ATCF_ID USA_LAT USA_LON USA_RECORD USA_STATUS USA_WIND USA_PRES USA_SSHS USA_R34_NE USA_R34_SE USA_R34_SW USA_R34_NW USA_R50_NE USA_R50_SE USA_R50_SW USA_R50_NW USA_R64_NE USA_R64_SE USA_R64_SW USA_R64_NW USA_POCI USA_ROCI USA_RMW USA_EYE TOKYO_LAT TOKYO_LON TOKYO_GRADE TOKYO_WIND TOKYO_PRES TOKYO_R50_DIR TOKYO_R50_LONG TOKYO_R50_SHORT TOKYO_R30_DIR TOKYO_R30_LONG TOKYO_R30_SHORT TOKYO_LAND CMA_LAT CMA_LON CMA_CAT CMA_WIND CMA_PRES HKO_LAT HKO_LON HKO_CAT HKO_WIND HKO_PRES NEWDELHI_LAT NEWDELHI_LON NEWDELHI_GRADE NEWDELHI_WIND NEWDELHI_PRES NEWDELHI_CI NEWDELHI_DP NEWDELHI_POCI REUNION_LAT REUNION_LON REUNION_TYPE REUNION_WIND REUNION_PRES REUNION_TNUM REUNION_CI REUNION_RMW REUNION_R34_NE REUNION_R34_SE REUNION_R34_SW REUNION_R34_NW REUNION_R50_NE REUNION_R50_SE REUNION_R50_SW REUNION_R50_NW REUNION_R64_NE REUNION_R64_SE REUNION_R64_SW REUNION_R64_NW BOM_LAT BOM_LON BOM_TYPE BOM_WIND BOM_PRES BOM_TNUM BOM_CI BOM_RMW BOM_R34_NE BOM_R34_SE BOM_R34_SW BOM_R34_NW BOM_R50_NE BOM_R50_SE BOM_R50_SW BOM_R50_NW BOM_R64_NE BOM_R64_SE BOM_R64_SW BOM_R64_NW BOM_ROCI BOM_POCI BOM_EYE BOM_POS_METHOD BOM_PRES_METHOD NADI_LAT NADI_LON NADI_CAT NADI_WIND NADI_PRES WELLINGTON_LAT WELLINGTON_LON WELLINGTON_WIND WELLINGTON_PRES DS824_LAT DS824_LON DS824_STAGE DS824_WIND DS824_PRES TD9636_LAT TD9636_LON TD9636_STAGE TD9636_WIND TD9636_PRES TD9635_LAT TD9635_LON TD9635_WIND TD9635_PRES TD9635_ROCI NEUMANN_LAT NEUMANN_LON NEUMANN_CLASS NEUMANN_WIND NEUMANN_PRES MLC_LAT MLC_LON MLC_CLASS MLC_WIND MLC_PRES USA_GUST BOM_GUST BOM_GUST_PER REUNION_GUST REUNION_GUST_PER USA_SEAHGT USA_SEARAD_NE USA_SEARAD_SE USA_SEARAD_SW USA_SEARAD_NW STORM_SPEED STORM_DIR
1984348N35300 1984 121 NA NA LILI 1984-12-12 12:00:00 SS 34.5000 -60.5000 50 995 hurdat_atl main 1083 1031 O_____________ hurdat_atl AL201984 34.5000 -60.5000 SS 50 995 -2 13 22
1984348N35300 1984 121 NA NA LILI 1984-12-12 15:00:00 SS 35.1003 -60.2015 main 1031 998 P_____________ AL201984 35.1003 -60.2015 SS 50 995 -2 11 22
1984348N35300 1984 121 NA NA LILI 1984-12-12 18:00:00 SS 35.5000 -60.0000 50 995 hurdat_atl main 998 988 O_____________ hurdat_atl AL201984 35.5000 -60.0000 SS 50 995 -2 5 22
1984348N35300 1984 121 NA NA LILI 1984-12-12 21:00:00 SS 35.5749 -59.9620 main 988 988 P_____________ AL201984 35.5749 -59.9620 SS 52 994 -2 0 0
1984348N35300 1984 121 NA NA LILI 1984-12-13 00:00:00 SS 35.5000 -60.0000 55 993 hurdat_atl main 998 998 O_____________ hurdat_atl AL201984 35.5000 -60.0000 SS 55 993 -2 1 238
1984348N35300 1984 121 NA NA LILI 1984-12-13 03:00:00 SS 35.5450 -60.0151 main 998 998 P_____________ AL201984 35.5450 -60.0151 SS 55 993 -2 0 0
1984348N35300 1984 121 NA NA LILI 1984-12-13 06:00:00 SS 35.5000 -60.0000 55 994 hurdat_atl main 998 998 O_____________ hurdat_atl AL201984 35.5000 -60.0000 SS 55 994 -2 3 163
1984348N35300 1984 121 NA NA LILI 1984-12-13 09:00:00 SS 35.2825 -59.9226 main 1022 1022 P_____________ AL201984 35.2825 -59.9226 SS 55 994 -2 6 165
1984348N35300 1984 121 NA NA LILI 1984-12-13 12:00:00 SS 34.9000 -59.8000 55 994 hurdat_atl main 1066 1066 O_____________ hurdat_atl AL201984 34.9000 -59.8000 SS 55 994 -2 9 167
1984348N35300 1984 121 NA NA LILI 1984-12-13 15:00:00 SS 34.3874 -59.6727 main 1121 1121 P_____________ AL201984 34.3874 -59.6727 SS 55 994 -2 11 167
1984348N35300 1984 121 NA NA LILI 1984-12-13 18:00:00 SS 33.8000 -59.5000 55 994 hurdat_atl main 1190 1190 O_____________ hurdat_atl AL201984 33.8000 -59.5000 SS 55 994 -2 12 165
1984348N35300 1984 121 NA NA LILI 1984-12-13 21:00:00 SS 33.2197 -59.3028 main 1259 1259 P_____________ AL201984 33.2197 -59.3028 SS 55 994 -2 12 159
1984348N35300 1984 121 NA NA LILI 1984-12-14 00:00:00 SS 32.7000 -59.0000 55 994 hurdat_atl main 1321 1321 O_____________ hurdat_atl AL201984 32.7000 -59.0000 SS 55 994 -2 11 145
1984348N35300 1984 121 NA NA LILI 1984-12-14 03:00:00 SS 32.3127 -58.5376 main 1380 1380 P_____________ AL201984 32.3127 -58.5376 SS 55 994 -2 11 130
1984348N35300 1984 121 NA NA LILI 1984-12-14 06:00:00 SS 32.0000 -58.0000 55 994 hurdat_atl main 1430 1430 O_____________ hurdat_atl AL201984 32.0000 -58.0000 SS 55 994 -2 11 124
1984348N35300 1984 121 NA NA LILI 1984-12-14 09:00:00 SS 31.7150 -57.4856 main 1480 1480 P_____________ AL201984 31.7150 -57.4856 SS 55 994 -2 10 125
1984348N35300 1984 121 NA NA LILI 1984-12-14 12:00:00 SS 31.4000 -57.0000 55 994 hurdat_atl main 1531 1531 O_____________ hurdat_atl AL201984 31.4000 -57.0000 SS 55 994 -2 11 131
1984348N35300 1984 121 NA NA LILI 1984-12-14 15:00:00 SS 31.0250 -56.5476 main 1592 1592 P_____________ AL201984 31.0250 -56.5476 SS 55 994 -2 11 143
1984348N35300 1984 121 NA NA LILI 1984-12-14 18:00:00 SS 30.5000 -56.2000 55 994 hurdat_atl main 1651 1601 O_____________ hurdat_atl AL201984 30.5000 -56.2000 SS 55 994 -2 14 159
1984348N35300 1984 121 NA NA LILI 1984-12-14 21:00:00 SS 29.7598 -55.9978 main 1601 1532 P_____________ AL201984 29.7598 -55.9978 SS 55 994 -2 16 171
1984348N35300 1984 121 NA NA LILI 1984-12-15 00:00:00 SS 28.9000 -55.9000 55 994 hurdat_atl main 1532 1474 O_____________ hurdat_atl AL201984 28.9000 -55.9000 SS 55 994 -2 17 175
1984348N35300 1984 121 NA NA LILI 1984-12-15 03:00:00 SS 28.0350 -55.8124 main 1466 1404 P_____________ AL201984 28.0350 -55.8124 SS 55 994 -2 17 177
1984348N35300 1984 121 NA NA LILI 1984-12-15 06:00:00 SS 27.2000 -55.8000 55 994 hurdat_atl main 1404 1345 O_____________ hurdat_atl AL201984 27.2000 -55.8000 SS 55 994 -2 16 182
1984348N35300 1984 121 NA NA LILI 1984-12-15 09:00:00 SS 26.4700 -55.8702 main 1345 1288 P_____________ AL201984 26.4700 -55.8702 SS 55 994 -2 14 187
1984348N35300 1984 121 NA NA LILI 1984-12-15 12:00:00 SS 25.8000 -56.0000 55 994 hurdat_atl main 1288 1231 O_____________ hurdat_atl AL201984 25.8000 -56.0000 SS 55 994 -2 14 191
1984348N35300 1984 121 NA NA LILI 1984-12-15 15:00:00 SS 25.1276 -56.1729 main 1225 1178 P_____________ AL201984 25.1276 -56.1729 SS 55 994 -2 13 192
1984348N35300 1984 121 NA NA LILI 1984-12-15 18:00:00 SS 24.5000 -56.3000 55 994 hurdat_atl main 1178 1148 O_____________ hurdat_atl AL201984 24.5000 -56.3000 SS 55 994 -2 12 187
1984348N35300 1984 121 NA NA LILI 1984-12-15 21:00:00 SS 23.9273 -56.3327 main 1143 1120 P_____________ AL201984 23.9273 -56.3327 SS 55 994 -2 11 175
1984348N35300 1984 121 NA NA LILI 1984-12-16 00:00:00 SS 23.4000 -56.2000 55 994 hurdat_atl main 1124 1117 O_____________ hurdat_atl AL201984 23.4000 -56.2000 SS 55 994 -2 12 160
1984348N35300 1984 121 NA NA LILI 1984-12-16 03:00:00 SS 22.8172 -55.8967 main 1122 1122 P_____________ AL201984 22.8172 -55.8967 SS 55 994 -2 12 144
1984348N35300 1984 121 NA NA LILI 1984-12-16 06:00:00 SS 22.4000 -55.4000 55 994 hurdat_atl main 1152 1152 O_____________ hurdat_atl AL201984 22.4000 -55.4000 SS 55 994 -2 12 117
1984348N35300 1984 121 NA NA LILI 1984-12-16 09:00:00 SS 22.2653 -54.7374 main 1216 1216 P_____________ AL201984 22.2653 -54.7374 SS 55 994 -2 13 90
1984348N35300 1984 121 NA NA LILI 1984-12-16 12:00:00 SS 22.4000 -54.0000 55 994 hurdat_atl main 1288 1288 O_____________ hurdat_atl AL201984 22.4000 -54.0000 SS 55 994 -2 13 72
1984348N35300 1984 121 NA NA LILI 1984-12-16 15:00:00 SS 22.6791 -53.3863 main 1357 1357 P_____________ AL201984 22.6791 -53.3863 SS 55 994 -2 14 56
1984348N35300 1984 121 NA NA LILI 1984-12-16 18:00:00 SS 23.2000 -52.7000 55 994 hurdat_atl main 1443 1443 O_____________ hurdat_atl AL201984 23.2000 -52.7000 SS 55 994 -2 19 53
1984348N35300 1984 121 NA NA LILI 1984-12-16 21:00:00 SS 23.8212 -51.7419 main 1561 1561 P_____________ AL201984 23.8212 -51.7419 SS 55 994 -2 24 47
1984348N35300 1984 121 NA NA LILI 1984-12-17 00:00:00 SS 24.8000 -50.8000 55 994 hurdat_atl main 1687 1687 O_____________ hurdat_atl AL201984 24.8000 -50.8000 SS 55 994 -2 29 32
1984348N35300 1984 121 NA NA LILI 1984-12-17 03:00:00 SS 26.2800 -50.0388 main 1828 1828 P_____________ AL201984 26.2800 -50.0388 SS 55 994 -2 34 19
1984348N35300 1984 121 NA NA LILI 1984-12-17 06:00:00 SS 28.0000 -49.6000 55 994 hurdat_atl main 1952 1918 O_____________ hurdat_atl AL201984 28.0000 -49.6000 SS 55 994 -2 35 7
1984348N35300 1984 121 NA NA LILI 1984-12-17 09:00:00 SS 29.7040 -49.5745 main 1907 1748 P_____________ AL201984 29.7040 -49.5745 SS 55 994 -2 32 355
1984348N35300 1984 121 NA NA LILI 1984-12-17 12:00:00 SS 31.2000 -49.9000 55 994 hurdat_atl main 1737 1621 O_____________ hurdat_atl AL201984 31.2000 -49.9000 SS 55 994 -2 26 346
1984348N35300 1984 121 NA NA LILI 1984-12-17 15:00:00 SS 32.2265 -50.3240 main 1621 1525 P_____________ AL201984 32.2265 -50.3240 SS 55 994 -2 20 333
1984348N35300 1984 121 NA NA LILI 1984-12-17 18:00:00 SS 33.0000 -51.0000 55 994 hurdat_atl main 1525 1416 O_____________ hurdat_atl AL201984 33.0000 -51.0000 SS 55 994 -2 22 320
1984348N35300 1984 121 NA NA LILI 1984-12-17 21:00:00 SS 33.9249 -52.0324 main 1416 1346 P_____________ AL201984 33.9249 -52.0324 SS 55 994 -2 22 312
1984348N35300 1984 121 NA NA LILI 1984-12-18 00:00:00 SS 34.5000 -53.0000 55 994 hurdat_atl main 1346 1346 O_____________ hurdat_atl AL201984 34.5000 -53.0000 SS 55 994 -2 13 293
1984348N35300 1984 121 NA NA LILI 1984-12-18 03:00:00 SS 34.4286 -53.4459 main 1357 1357 P_____________ AL201984 34.4286 -53.4459 SS 55 994 -2 7 225
1984348N35300 1984 121 NA NA LILI 1984-12-18 06:00:00 SS 34.0000 -53.6000 55 994 hurdat_atl main 1400 1400 O_____________ hurdat_atl AL201984 34.0000 -53.6000 SS 55 994 -2 9 194
1984348N35300 1984 121 NA NA LILI 1984-12-18 09:00:00 SS 33.5349 -53.7098 main 1447 1447 P_____________ AL201984 33.5349 -53.7098 SS 57 992 -2 9 185
1984348N35300 1984 121 NA NA LILI 1984-12-18 12:00:00 SS 33.1000 -53.7000 60 990 hurdat_atl main 1488 1488 O_____________ hurdat_atl AL201984 33.1000 -53.7000 SS 60 990 -2 6 174
1984348N35300 1984 121 NA NA LILI 1984-12-18 15:00:00 SS 32.9050 -53.6224 main 1512 1512 P_____________ AL201984 32.9050 -53.6224 SS 60 990 -2 3 151
1984348N35300 1984 121 NA NA LILI 1984-12-18 18:00:00 SS 32.8000 -53.5000 60 990 hurdat_atl main 1526 1526 O_____________ hurdat_atl AL201984 32.8000 -53.5000 SS 60 990 -2 3 144
1984348N35300 1984 121 NA NA LILI 1984-12-18 21:00:00 SS 32.6350 -53.3925 main 1550 1550 P_____________ AL201984 32.6350 -53.3925 SS 60 990 -2 3 151
1984348N35300 1984 121 NA NA LILI 1984-12-19 00:00:00 SS 32.5000 -53.3000 60 990 hurdat_atl main 1564 1564 O_____________ hurdat_atl AL201984 32.5000 -53.3000 SS 60 990 -2 2 147
1984348N35300 1984 121 NA NA LILI 1984-12-19 03:00:00 SS 32.4350 -53.2426 main 1578 1578 P_____________ AL201984 32.4350 -53.2426 SS 60 990 -2 1 140
1984348N35300 1984 121 NA NA LILI 1984-12-19 06:00:00 SS 32.4000 -53.2000 60 990 hurdat_atl main 1578 1578 O_____________ hurdat_atl AL201984 32.4000 -53.2000 SS 60 990 -2 1 136
1984348N35300 1984 121 NA NA LILI 1984-12-19 09:00:00 SS 32.3500 -53.1500 main 1578 1588 P_____________ AL201984 32.3500 -53.1500 SS 60 990 -2 1 140
1984348N35300 1984 121 NA NA LILI 1984-12-19 12:00:00 SS 32.3000 -53.1000 60 990 hurdat_atl main 1591 1591 O_____________ hurdat_atl AL201984 32.3000 -53.1000 SS 60 990 -2 1 138
1984348N35300 1984 121 NA NA LILI 1984-12-19 15:00:00 SS 32.2575 -53.0500 main 1591 1591 P_____________ AL201984 32.2575 -53.0500 SS 60 990 -2 1 140
1984348N35300 1984 121 NA NA LILI 1984-12-19 18:00:00 SS 32.2000 -53.0000 60 990 hurdat_atl main 1602 1602 O_____________ hurdat_atl AL201984 32.2000 -53.0000 SS 60 990 -2 2 152
1984348N35300 1984 121 NA NA LILI 1984-12-19 21:00:00 SS 32.1224 -52.9727 main 1614 1614 P_____________ AL201984 32.1224 -52.9727 SS 60 989 -2 2 155
1984348N35300 1984 121 NA NA LILI 1984-12-20 00:00:00 SS 32.0000 -52.9000 60 989 hurdat_atl main 1625 1625 O_____________ hurdat_atl AL201984 32.0000 -52.9000 SS 60 989 -2 4 143
1984348N35300 1984 121 NA NA LILI 1984-12-20 03:00:00 SS 31.8226 -52.6998 main 1648 1648 P_____________ AL201984 31.8226 -52.6998 SS 60 988 -2 5 140
1984348N35300 1984 121 NA NA LILI 1984-12-20 06:00:00 SS 31.6000 -52.5000 60 988 hurdat_atl main 1670 1670 O_____________ hurdat_atl AL201984 31.6000 -52.5000 SS 60 988 -2 5 153
1984348N35300 1984 121 NA NA LILI 1984-12-20 09:00:00 SS 31.3649 -52.4277 main 1693 1693 P_____________ AL201984 31.3649 -52.4277 SS 65 984 -2 5 170
1984348N35300 1984 121 NA NA LILI 1984-12-20 12:00:00 TS 31.1000 -52.4000 70 980 hurdat_atl main 1726 1726 O_____________ hurdat_atl AL201984 31.1000 -52.4000 HU 70 980 1 6 173
1984348N35300 1984 121 NA NA LILI 1984-12-20 15:00:00 TS 30.8000 -52.3500 main 1760 1760 P_____________ AL201984 30.8000 -52.3500 HU 70 980 1 6 172
1984348N35300 1984 121 NA NA LILI 1984-12-20 18:00:00 TS 30.5000 -52.3000 70 980 hurdat_atl main 1794 1794 O_____________ hurdat_atl AL201984 30.5000 -52.3000 HU 70 980 1 6 171
1984348N35300 1984 121 NA NA LILI 1984-12-20 21:00:00 TS 30.2425 -52.2500 main 1827 1827 P_____________ AL201984 30.2425 -52.2500 HU 70 980 1 5 170
1984348N35300 1984 121 NA NA LILI 1984-12-21 00:00:00 TS 30.0000 -52.2000 70 980 hurdat_atl main 1850 1850 O_____________ hurdat_atl AL201984 30.0000 -52.2000 HU 70 980 1 5 170
1984348N35300 1984 121 NA NA LILI 1984-12-21 03:00:00 TS 29.7500 -52.1500 main 1859 1846 P_____________ AL201984 29.7500 -52.1500 HU 70 980 1 5 170
1984348N35300 1984 121 NA NA LILI 1984-12-21 06:00:00 TS 29.5000 -52.1000 70 980 hurdat_atl main 1846 1831 O_____________ hurdat_atl AL201984 29.5000 -52.1000 HU 70 980 1 5 169
1984348N35300 1984 121 NA NA LILI 1984-12-21 09:00:00 TS 29.2500 -52.0425 main 1839 1818 P_____________ AL201984 29.2500 -52.0425 HU 70 980 1 5 170
1984348N35300 1984 121 NA NA LILI 1984-12-21 12:00:00 TS 29.0000 -52.0000 70 980 hurdat_atl main 1818 1805 O_____________ hurdat_atl AL201984 29.0000 -52.0000 HU 70 980 1 5 174
1984348N35300 1984 121 NA NA LILI 1984-12-21 15:00:00 TS 28.7650 -51.9774 main 1805 1785 P_____________ AL201984 28.7650 -51.9774 HU 70 980 1 5 178
1984348N35300 1984 121 NA NA LILI 1984-12-21 18:00:00 TS 28.5000 -52.0000 70 980 hurdat_atl main 1785 1765 O_____________ hurdat_atl AL201984 28.5000 -52.0000 HU 70 980 1 6 185
1984348N35300 1984 121 NA NA LILI 1984-12-21 21:00:00 TS 28.1723 -52.0472 main 1765 1724 P_____________ AL201984 28.1723 -52.0472 HU 70 980 1 7 194
1984348N35300 1984 121 NA NA LILI 1984-12-22 00:00:00 TS 27.8000 -52.2000 70 980 hurdat_atl main 1724 1674 O_____________ hurdat_atl AL201984 27.8000 -52.2000 HU 70 980 1 8 207
1984348N35300 1984 121 NA NA LILI 1984-12-22 03:00:00 TS 27.4223 -52.4822 main 1674 1616 P_____________ AL201984 27.4223 -52.4822 HU 70 980 1 10 218
1984348N35300 1984 121 NA NA LILI 1984-12-22 06:00:00 TS 27.0000 -52.9000 70 980 hurdat_atl main 1616 1550 O_____________ hurdat_atl AL201984 27.0000 -52.9000 HU 70 980 1 12 222
1984348N35300 1984 121 NA NA LILI 1984-12-22 09:00:00 TS 26.5296 -53.3819 main 1544 1464 P_____________ AL201984 26.5296 -53.3819 HU 70 980 1 14 225
1984348N35300 1984 121 NA NA LILI 1984-12-22 12:00:00 TS 26.0000 -54.0000 70 980 hurdat_atl main 1464 1368 O_____________ hurdat_atl AL201984 26.0000 -54.0000 HU 70 980 1 17 228
1984348N35300 1984 121 NA NA LILI 1984-12-22 15:00:00 TS 25.4152 -54.7702 main 1360 1256 P_____________ AL201984 25.4152 -54.7702 HU 70 980 1 19 230
1984348N35300 1984 121 NA NA LILI 1984-12-22 18:00:00 TS 24.8000 -55.6000 70 980 hurdat_atl main 1256 1160 O_____________ hurdat_atl AL201984 24.8000 -55.6000 HU 70 980 1 19 229
1984348N35300 1984 121 NA NA LILI 1984-12-22 21:00:00 TS 24.1767 -56.3343 main 1160 1056 P_____________ AL201984 24.1767 -56.3343 HU 67 983 1 18 229
1984348N35300 1984 121 NA NA LILI 1984-12-23 00:00:00 TS 23.6000 -57.1000 65 987 hurdat_atl main 1056 957 O_____________ hurdat_atl AL201984 23.6000 -57.1000 HU 65 987 1 18 234
1984348N35300 1984 121 NA NA LILI 1984-12-23 03:00:00 TS 23.1119 -57.9544 main 948 855 P_____________ AL201984 23.1119 -57.9544 HU 60 990 0 19 241
1984348N35300 1984 121 NA NA LILI 1984-12-23 06:00:00 TS 22.7000 -58.9000 55 994 hurdat_atl main 846 743 O_____________ hurdat_atl AL201984 22.7000 -58.9000 TS 55 994 0 20 247
1984348N35300 1984 121 NA NA LILI 1984-12-23 09:00:00 TS 22.3422 -59.9267 main 736 634 P_____________ AL201984 22.3422 -59.9267 TS 52 997 0 21 250
1984348N35300 1984 121 NA NA LILI 1984-12-23 12:00:00 TS 22.0000 -61.0000 50 1001 hurdat_atl main 626 519 O_____________ hurdat_atl AL201984 22.0000 -61.0000 TS 50 1001 0 21 249
1984348N35300 1984 121 NA NA LILI 1984-12-23 15:00:00 TS 21.5995 -62.0573 main 511 414 P_____________ AL201984 21.5995 -62.0573 TS 47 1004 0 21 248
1984348N35300 1984 121 NA NA LILI 1984-12-23 18:00:00 TS 21.2000 -63.1000 45 1007 hurdat_atl main 408 325 O_____________ hurdat_atl AL201984 21.2000 -63.1000 TS 45 1007 0 20 248
1984348N35300 1984 121 NA NA LILI 1984-12-23 21:00:00 TS 20.8337 -64.0768 main 311 243 P_____________ AL201984 20.8337 -64.0768 TS 40 1008 0 20 249
1984348N35300 1984 121 NA NA LILI 1984-12-24 00:00:00 TS 20.5000 -65.1000 35 1009 hurdat_atl main 240 201 O_____________ hurdat_atl AL201984 20.5000 -65.1000 TS 35 1009 0 22 253
1984348N35300 1984 121 NA NA LILI 1984-12-24 03:00:00 TS 20.2005 -66.3071 main 201 168 P_____________ AL201984 20.2005 -66.3071 TS 32 1009 -1 23 255
1984348N35300 1984 121 NA NA LILI 1984-12-24 06:00:00 TS 19.9000 -67.5000 30 1010 hurdat_atl main 167 84 O_____________ hurdat_atl AL201984 19.9000 -67.5000 TD 30 1010 -1 22 253
1984348N35300 1984 121 NA NA LILI 1984-12-24 09:00:00 TS 19.5626 -68.5106 main 84 0 P_____________ AL201984 19.5626 -68.5106 TD 27 1011 -1 19 249
1984348N35300 1984 121 NA NA LILI 1984-12-24 12:00:00 TS 19.2000 -69.4000 25 1012 hurdat_atl main 0 O_____________ hurdat_atl AL201984 19.2000 -69.4000 TD 25 1012 -1 18 247

About IBTrACS Database

This database is a web-friendly format of International Best Track Archive for Climate Stewardship (IBTrACS), a global best track data archive curated by NOAA dating back to 1842.

Updated: 2021-11-26